sensor_id;sensor_type;location;lat;lon;timestamp;temperature;humidity
4647;DHT22;2336;47.822;7.564;2023-08-24T00:01:56;22.20;99.90
4647;DHT22;2336;47.822;7.564;2023-08-24T00:04:23;22.30;99.90
4647;DHT22;2336;47.822;7.564;2023-08-24T00:06:49;22.30;99.90
4647;DHT22;2336;47.822;7.564;2023-08-24T00:09:17;22.30;99.90
4647;DHT22;2336;47.822;7.564;2023-08-24T00:11:44;22.20;99.90
4647;DHT22;2336;47.822;7.564;2023-08-24T00:14:11;22.20;99.90
4647;DHT22;2336;47.822;7.564;2023-08-24T00:16:39;22.10;99.90
4647;DHT22;2336;47.822;7.564;2023-08-24T00:19:06;22.00;99.90
4647;DHT22;2336;47.822;7.564;2023-08-24T00:21:33;22.00;99.90
4647;DHT22;2336;47.822;7.564;2023-08-24T00:24:00;21.90;99.90
4647;DHT22;2336;47.822;7.564;2023-08-24T00:26:27;21.80;99.90
4647;DHT22;2336;47.822;7.564;2023-08-24T00:28:53;21.80;99.90
4647;DHT22;2336;47.822;7.564;2023-08-24T00:31:20;21.70;99.90
4647;DHT22;2336;47.822;7.564;2023-08-24T00:33:48;21.70;99.90
4647;DHT22;2336;47.822;7.564;2023-08-24T00:36:16;21.70;99.90
4647;DHT22;2336;47.822;7.564;2023-08-24T00:38:44;21.70;99.90
4647;DHT22;2336;47.822;7.564;2023-08-24T00:41:16;21.70;99.90
4647;DHT22;2336;47.822;7.564;2023-08-24T00:43:43;21.70;99.90
4647;DHT22;2336;47.822;7.564;2023-08-24T00:46:10;21.80;99.90
4647;DHT22;2336;47.822;7.564;2023-08-24T00:48:37;21.70;99.90
4647;DHT22;2336;47.822;7.564;2023-08-24T00:51:05;21.70;99.90
4647;DHT22;2336;47.822;7.564;2023-08-24T00:53:32;21.70;99.90
4647;DHT22;2336;47.822;7.564;2023-08-24T00:55:59;21.80;99.90
4647;DHT22;2336;47.822;7.564;2023-08-24T00:58:27;21.80;99.90
4647;DHT22;2336;47.822;7.564;2023-08-24T01:00:54;21.70;99.90
4647;DHT22;2336;47.822;7.564;2023-08-24T01:03:22;21.70;99.90
4647;DHT22;2336;47.822;7.564;2023-08-24T01:05:49;21.60;99.90
4647;DHT22;2336;47.822;7.564;2023-08-24T01:08:18;21.50;99.90
4647;DHT22;2336;47.822;7.564;2023-08-24T01:10:50;21.40;99.90
4647;DHT22;2336;47.822;7.564;2023-08-24T01:13:23;21.40;99.90
4647;DHT22;2336;47.822;7.564;2023-08-24T01:15:58;21.60;99.90
4647;DHT22;2336;47.822;7.564;2023-08-24T01:18:26;21.70;99.90
4647;DHT22;2336;47.822;7.564;2023-08-24T01:20:54;21.80;99.90
4647;DHT22;2336;47.822;7.564;2023-08-24T01:23:41;21.80;99.90
4647;DHT22;2336;47.822;7.564;2023-08-24T01:26:12;21.80;99.90
4647;DHT22;2336;47.822;7.564;2023-08-24T01:28:39;21.90;99.90
4647;DHT22;2336;47.822;7.564;2023-08-24T01:31:06;21.90;99.90
4647;DHT22;2336;47.822;7.564;2023-08-24T01:33:33;21.80;99.90
4647;DHT22;2336;47.822;7.564;2023-08-24T01:36:00;21.70;99.90
4647;DHT22;2336;47.822;7.564;2023-08-24T01:38:27;21.80;99.90
4647;DHT22;2336;47.822;7.564;2023-08-24T01:41:01;21.70;99.90
4647;DHT22;2336;47.822;7.564;2023-08-24T01:43:32;21.70;99.90
4647;DHT22;2336;47.822;7.564;2023-08-24T01:46:04;21.70;99.90
4647;DHT22;2336;47.822;7.564;2023-08-24T01:48:31;21.80;99.90
4647;DHT22;2336;47.822;7.564;2023-08-24T01:51:00;21.80;99.90
4647;DHT22;2336;47.822;7.564;2023-08-24T01:53:29;21.70;99.90
4647;DHT22;2336;47.822;7.564;2023-08-24T01:55:56;21.70;99.90
4647;DHT22;2336;47.822;7.564;2023-08-24T01:58:23;21.60;99.90
4647;DHT22;2336;47.822;7.564;2023-08-24T02:00:51;21.60;99.90
4647;DHT22;2336;47.822;7.564;2023-08-24T02:03:18;21.60;99.90
4647;DHT22;2336;47.822;7.564;2023-08-24T02:05:44;21.70;99.90
4647;DHT22;2336;47.822;7.564;2023-08-24T02:08:11;21.70;99.90
4647;DHT22;2336;47.822;7.564;2023-08-24T02:10:38;21.70;99.90
4647;DHT22;2336;47.822;7.564;2023-08-24T02:13:04;21.70;99.90
4647;DHT22;2336;47.822;7.564;2023-08-24T02:15:31;21.60;99.90
4647;DHT22;2336;47.822;7.564;2023-08-24T02:18:00;21.60;99.90
4647;DHT22;2336;47.822;7.564;2023-08-24T02:20:27;21.50;99.90
4647;DHT22;2336;47.822;7.564;2023-08-24T02:22:53;21.40;99.90
4647;DHT22;2336;47.822;7.564;2023-08-24T02:25:20;21.40;99.90
4647;DHT22;2336;47.822;7.564;2023-08-24T02:27:47;21.40;99.90
4647;DHT22;2336;47.822;7.564;2023-08-24T02:30:14;21.40;99.90
4647;DHT22;2336;47.822;7.564;2023-08-24T02:32:41;21.40;99.90
4647;DHT22;2336;47.822;7.564;2023-08-24T02:35:10;21.50;99.90
4647;DHT22;2336;47.822;7.564;2023-08-24T02:37:36;21.50;99.90
4647;DHT22;2336;47.822;7.564;2023-08-24T02:40:04;21.60;99.90
4647;DHT22;2336;47.822;7.564;2023-08-24T02:42:34;21.60;99.90
4647;DHT22;2336;47.822;7.564;2023-08-24T02:45:02;21.60;99.90
4647;DHT22;2336;47.822;7.564;2023-08-24T02:47:29;21.60;99.90
4647;DHT22;2336;47.822;7.564;2023-08-24T02:49:56;21.60;99.90
4647;DHT22;2336;47.822;7.564;2023-08-24T02:52:24;21.60;99.90
4647;DHT22;2336;47.822;7.564;2023-08-24T02:54:51;21.60;99.90
4647;DHT22;2336;47.822;7.564;2023-08-24T02:57:18;21.70;99.90
4647;DHT22;2336;47.822;7.564;2023-08-24T02:59:44;21.70;99.90
4647;DHT22;2336;47.822;7.564;2023-08-24T03:02:11;21.70;99.90
4647;DHT22;2336;47.822;7.564;2023-08-24T03:04:38;21.70;99.90
4647;DHT22;2336;47.822;7.564;2023-08-24T03:07:05;21.70;99.90
4647;DHT22;2336;47.822;7.564;2023-08-24T03:09:35;21.70;99.90
4647;DHT22;2336;47.822;7.564;2023-08-24T03:12:02;21.70;99.90
4647;DHT22;2336;47.822;7.564;2023-08-24T03:14:29;21.70;99.90
4647;DHT22;2336;47.822;7.564;2023-08-24T03:16:55;21.60;99.90
4647;DHT22;2336;47.822;7.564;2023-08-24T03:19:22;21.60;99.90
4647;DHT22;2336;47.822;7.564;2023-08-24T03:21:49;21.60;99.90
4647;DHT22;2336;47.822;7.564;2023-08-24T03:24:16;21.50;99.90
4647;DHT22;2336;47.822;7.564;2023-08-24T03:26:44;21.50;99.90
4647;DHT22;2336;47.822;7.564;2023-08-24T03:29:11;21.50;99.90
4647;DHT22;2336;47.822;7.564;2023-08-24T03:31:38;21.50;99.90
4647;DHT22;2336;47.822;7.564;2023-08-24T03:34:04;21.50;99.90
4647;DHT22;2336;47.822;7.564;2023-08-24T03:36:31;21.50;99.90
4647;DHT22;2336;47.822;7.564;2023-08-24T03:38:58;21.40;99.90
4647;DHT22;2336;47.822;7.564;2023-08-24T03:41:25;21.30;99.90
4647;DHT22;2336;47.822;7.564;2023-08-24T03:43:53;21.20;99.90
4647;DHT22;2336;47.822;7.564;2023-08-24T03:46:20;21.20;99.90
4647;DHT22;2336;47.822;7.564;2023-08-24T03:48:46;21.20;99.90
4647;DHT22;2336;47.822;7.564;2023-08-24T03:51:13;21.10;99.90
4647;DHT22;2336;47.822;7.564;2023-08-24T03:53:40;21.10;99.90
4647;DHT22;2336;47.822;7.564;2023-08-24T03:56:06;21.00;99.90
4647;DHT22;2336;47.822;7.564;2023-08-24T03:58:33;20.90;99.90
4647;DHT22;2336;47.822;7.564;2023-08-24T04:01:01;20.90;99.90
4647;DHT22;2336;47.822;7.564;2023-08-24T04:03:28;20.80;99.90
4647;DHT22;2336;47.822;7.564;2023-08-24T04:05:55;20.70;99.90
4647;DHT22;2336;47.822;7.564;2023-08-24T04:08:22;20.70;99.90
4647;DHT22;2336;47.822;7.564;2023-08-24T04:10:49;20.60;99.90
4647;DHT22;2336;47.822;7.564;2023-08-24T04:13:15;20.60;99.90
4647;DHT22;2336;47.822;7.564;2023-08-24T04:15:42;20.60;99.90
4647;DHT22;2336;47.822;7.564;2023-08-24T04:18:10;20.60;99.90
4647;DHT22;2336;47.822;7.564;2023-08-24T04:20:37;20.60;99.90
4647;DHT22;2336;47.822;7.564;2023-08-24T04:23:04;20.60;99.90
4647;DHT22;2336;47.822;7.564;2023-08-24T04:25:31;20.70;99.90
4647;DHT22;2336;47.822;7.564;2023-08-24T04:27:58;20.60;99.90
4647;DHT22;2336;47.822;7.564;2023-08-24T04:30:24;20.70;99.90
4647;DHT22;2336;47.822;7.564;2023-08-24T04:32:51;20.80;99.90
4647;DHT22;2336;47.822;7.564;2023-08-24T04:35:19;20.80;99.90
4647;DHT22;2336;47.822;7.564;2023-08-24T04:37:46;20.70;99.90
4647;DHT22;2336;47.822;7.564;2023-08-24T04:40:13;20.70;99.90
4647;DHT22;2336;47.822;7.564;2023-08-24T04:42:39;20.70;99.90
4647;DHT22;2336;47.822;7.564;2023-08-24T04:45:07;20.80;99.90
4647;DHT22;2336;47.822;7.564;2023-08-24T04:47:35;20.80;99.90
4647;DHT22;2336;47.822;7.564;2023-08-24T04:50:01;20.80;99.90
4647;DHT22;2336;47.822;7.564;2023-08-24T04:52:29;21.00;99.90
4647;DHT22;2336;47.822;7.564;2023-08-24T04:54:56;21.00;99.90
4647;DHT22;2336;47.822;7.564;2023-08-24T04:57:23;21.00;99.90
4647;DHT22;2336;47.822;7.564;2023-08-24T04:59:50;21.10;99.90
4647;DHT22;2336;47.822;7.564;2023-08-24T05:02:16;21.20;99.90
4647;DHT22;2336;47.822;7.564;2023-08-24T05:04:43;21.20;99.90
4647;DHT22;2336;47.822;7.564;2023-08-24T05:07:10;21.20;99.90
4647;DHT22;2336;47.822;7.564;2023-08-24T05:09:38;21.20;99.90
4647;DHT22;2336;47.822;7.564;2023-08-24T05:12:05;21.20;99.90
4647;DHT22;2336;47.822;7.564;2023-08-24T05:14:32;21.20;99.90
4647;DHT22;2336;47.822;7.564;2023-08-24T05:17:00;21.20;99.90
4647;DHT22;2336;47.822;7.564;2023-08-24T05:19:26;21.20;99.90
4647;DHT22;2336;47.822;7.564;2023-08-24T05:21:53;21.00;99.90
4647;DHT22;2336;47.822;7.564;2023-08-24T05:24:20;21.00;99.90
4647;DHT22;2336;47.822;7.564;2023-08-24T05:26:48;21.00;99.90
4647;DHT22;2336;47.822;7.564;2023-08-24T05:29:14;21.00;99.90
4647;DHT22;2336;47.822;7.564;2023-08-24T05:31:41;21.00;99.90
4647;DHT22;2336;47.822;7.564;2023-08-24T05:34:08;20.90;99.90
4647;DHT22;2336;47.822;7.564;2023-08-24T05:36:35;21.00;99.90
4647;DHT22;2336;47.822;7.564;2023-08-24T05:39:01;21.00;99.90
4647;DHT22;2336;47.822;7.564;2023-08-24T05:41:28;21.00;99.90
4647;DHT22;2336;47.822;7.564;2023-08-24T05:43:56;21.00;99.90
4647;DHT22;2336;47.822;7.564;2023-08-24T05:46:23;21.10;99.90
4647;DHT22;2336;47.822;7.564;2023-08-24T05:48:50;21.10;99.90
4647;DHT22;2336;47.822;7.564;2023-08-24T05:51:17;21.10;99.90
4647;DHT22;2336;47.822;7.564;2023-08-24T05:53:44;21.10;99.90
4647;DHT22;2336;47.822;7.564;2023-08-24T05:56:10;21.10;99.90
4647;DHT22;2336;47.822;7.564;2023-08-24T05:58:37;21.10;99.90
4647;DHT22;2336;47.822;7.564;2023-08-24T06:01:05;21.10;99.90
4647;DHT22;2336;47.822;7.564;2023-08-24T06:03:33;21.10;99.90
4647;DHT22;2336;47.822;7.564;2023-08-24T06:06:03;21.10;99.90
4647;DHT22;2336;47.822;7.564;2023-08-24T06:08:31;21.10;99.90
4647;DHT22;2336;47.822;7.564;2023-08-24T06:10:58;21.20;99.90
4647;DHT22;2336;47.822;7.564;2023-08-24T06:13:25;21.20;99.90
4647;DHT22;2336;47.822;7.564;2023-08-24T06:15:52;21.20;99.90
4647;DHT22;2336;47.822;7.564;2023-08-24T06:18:21;21.20;99.90
4647;DHT22;2336;47.822;7.564;2023-08-24T06:20:47;21.30;99.90
4647;DHT22;2336;47.822;7.564;2023-08-24T06:23:16;21.40;99.90
4647;DHT22;2336;47.822;7.564;2023-08-24T06:25:43;21.50;99.90
4647;DHT22;2336;47.822;7.564;2023-08-24T06:28:10;21.60;99.90
4647;DHT22;2336;47.822;7.564;2023-08-24T06:30:37;21.70;99.90
4647;DHT22;2336;47.822;7.564;2023-08-24T06:33:05;21.80;99.90
4647;DHT22;2336;47.822;7.564;2023-08-24T06:35:34;21.90;99.90
4647;DHT22;2336;47.822;7.564;2023-08-24T06:38:01;22.00;99.90
4647;DHT22;2336;47.822;7.564;2023-08-24T06:40:28;22.00;99.90
4647;DHT22;2336;47.822;7.564;2023-08-24T06:42:55;22.10;99.90
4647;DHT22;2336;47.822;7.564;2023-08-24T06:45:21;22.10;99.90
4647;DHT22;2336;47.822;7.564;2023-08-24T06:47:49;22.10;99.90
4647;DHT22;2336;47.822;7.564;2023-08-24T06:50:17;22.10;99.90
4647;DHT22;2336;47.822;7.564;2023-08-24T06:52:45;22.10;99.90
4647;DHT22;2336;47.822;7.564;2023-08-24T06:55:12;22.10;99.90
4647;DHT22;2336;47.822;7.564;2023-08-24T06:57:39;22.10;99.90
4647;DHT22;2336;47.822;7.564;2023-08-24T07:00:07;22.20;99.90
4647;DHT22;2336;47.822;7.564;2023-08-24T07:02:34;22.20;99.90
4647;DHT22;2336;47.822;7.564;2023-08-24T07:05:02;22.20;99.90
4647;DHT22;2336;47.822;7.564;2023-08-24T07:07:33;22.20;99.90
4647;DHT22;2336;47.822;7.564;2023-08-24T07:10:01;22.20;99.90
4647;DHT22;2336;47.822;7.564;2023-08-24T07:12:29;22.30;99.90
4647;DHT22;2336;47.822;7.564;2023-08-24T07:14:56;22.30;99.90
4647;DHT22;2336;47.822;7.564;2023-08-24T07:17:23;22.40;99.90
4647;DHT22;2336;47.822;7.564;2023-08-24T07:19:50;22.50;99.90
4647;DHT22;2336;47.822;7.564;2023-08-24T07:22:17;22.60;99.90
4647;DHT22;2336;47.822;7.564;2023-08-24T07:24:44;22.60;99.90
4647;DHT22;2336;47.822;7.564;2023-08-24T07:27:13;22.70;99.90
4647;DHT22;2336;47.822;7.564;2023-08-24T07:29:40;22.80;99.90
4647;DHT22;2336;47.822;7.564;2023-08-24T07:32:06;22.90;99.90
4647;DHT22;2336;47.822;7.564;2023-08-24T07:34:33;23.00;99.90
4647;DHT22;2336;47.822;7.564;2023-08-24T07:37:00;23.10;99.90
4647;DHT22;2336;47.822;7.564;2023-08-24T07:39:27;23.10;99.90
4647;DHT22;2336;47.822;7.564;2023-08-24T07:41:54;23.20;99.90
4647;DHT22;2336;47.822;7.564;2023-08-24T07:44:22;23.30;99.90
4647;DHT22;2336;47.822;7.564;2023-08-24T07:46:48;23.30;99.90
4647;DHT22;2336;47.822;7.564;2023-08-24T07:49:16;23.40;99.90
4647;DHT22;2336;47.822;7.564;2023-08-24T07:51:42;23.50;99.90
4647;DHT22;2336;47.822;7.564;2023-08-24T07:54:09;23.60;99.90
4647;DHT22;2336;47.822;7.564;2023-08-24T07:56:36;23.60;99.90
4647;DHT22;2336;47.822;7.564;2023-08-24T07:59:03;23.70;99.90
4647;DHT22;2336;47.822;7.564;2023-08-24T08:01:31;23.80;99.90
4647;DHT22;2336;47.822;7.564;2023-08-24T08:03:58;23.80;99.90
4647;DHT22;2336;47.822;7.564;2023-08-24T08:06:25;23.90;99.90
4647;DHT22;2336;47.822;7.564;2023-08-24T08:08:52;24.10;99.90
4647;DHT22;2336;47.822;7.564;2023-08-24T08:11:19;24.20;99.90
4647;DHT22;2336;47.822;7.564;2023-08-24T08:13:46;24.30;99.90
4647;DHT22;2336;47.822;7.564;2023-08-24T08:16:13;24.40;99.90
4647;DHT22;2336;47.822;7.564;2023-08-24T08:18:41;24.50;99.90
4647;DHT22;2336;47.822;7.564;2023-08-24T08:21:09;24.50;99.90
4647;DHT22;2336;47.822;7.564;2023-08-24T08:23:36;24.60;99.90
4647;DHT22;2336;47.822;7.564;2023-08-24T08:26:02;24.70;99.90
4647;DHT22;2336;47.822;7.564;2023-08-24T08:28:29;24.90;99.90
4647;DHT22;2336;47.822;7.564;2023-08-24T08:30:59;24.90;99.90
4647;DHT22;2336;47.822;7.564;2023-08-24T08:33:25;24.90;99.90
4647;DHT22;2336;47.822;7.564;2023-08-24T08:35:53;24.90;99.90
4647;DHT22;2336;47.822;7.564;2023-08-24T08:38:20;25.00;99.90
4647;DHT22;2336;47.822;7.564;2023-08-24T08:40:52;25.00;99.90
4647;DHT22;2336;47.822;7.564;2023-08-24T08:43:21;25.10;99.90
4647;DHT22;2336;47.822;7.564;2023-08-24T08:45:49;25.00;99.90
4647;DHT22;2336;47.822;7.564;2023-08-24T08:48:16;25.20;99.90
4647;DHT22;2336;47.822;7.564;2023-08-24T08:50:43;25.30;99.90
4647;DHT22;2336;47.822;7.564;2023-08-24T08:53:11;25.40;99.90
4647;DHT22;2336;47.822;7.564;2023-08-24T08:55:38;25.50;99.90
4647;DHT22;2336;47.822;7.564;2023-08-24T08:58:05;25.70;99.90
4647;DHT22;2336;47.822;7.564;2023-08-24T09:00:33;25.80;99.90
4647;DHT22;2336;47.822;7.564;2023-08-24T09:03:00;25.90;99.90
4647;DHT22;2336;47.822;7.564;2023-08-24T09:05:28;26.10;99.90
4647;DHT22;2336;47.822;7.564;2023-08-24T09:07:57;26.10;99.90
4647;DHT22;2336;47.822;7.564;2023-08-24T09:10:26;26.30;99.90
4647;DHT22;2336;47.822;7.564;2023-08-24T09:12:53;26.30;99.90
4647;DHT22;2336;47.822;7.564;2023-08-24T09:15:26;26.40;99.90
4647;DHT22;2336;47.822;7.564;2023-08-24T09:17:54;26.50;99.90
4647;DHT22;2336;47.822;7.564;2023-08-24T09:20:22;26.70;99.90
4647;DHT22;2336;47.822;7.564;2023-08-24T09:22:48;26.80;99.90
4647;DHT22;2336;47.822;7.564;2023-08-24T09:25:16;26.90;99.90
4647;DHT22;2336;47.822;7.564;2023-08-24T09:27:44;27.20;99.90
4647;DHT22;2336;47.822;7.564;2023-08-24T09:30:11;27.30;99.90
4647;DHT22;2336;47.822;7.564;2023-08-24T09:32:38;27.50;99.90
4647;DHT22;2336;47.822;7.564;2023-08-24T09:35:09;27.50;99.90
4647;DHT22;2336;47.822;7.564;2023-08-24T09:37:37;27.40;99.90
4647;DHT22;2336;47.822;7.564;2023-08-24T09:40:03;27.50;99.90
4647;DHT22;2336;47.822;7.564;2023-08-24T09:42:37;27.40;99.90
4647;DHT22;2336;47.822;7.564;2023-08-24T09:45:12;27.40;99.90
4647;DHT22;2336;47.822;7.564;2023-08-24T09:47:39;27.50;99.90
4647;DHT22;2336;47.822;7.564;2023-08-24T09:50:11;27.60;99.90
4647;DHT22;2336;47.822;7.564;2023-08-24T09:52:39;27.60;99.90
4647;DHT22;2336;47.822;7.564;2023-08-24T09:55:09;27.60;99.90
4647;DHT22;2336;47.822;7.564;2023-08-24T09:57:38;27.60;99.90
4647;DHT22;2336;47.822;7.564;2023-08-24T10:00:09;27.60;99.90
4647;DHT22;2336;47.822;7.564;2023-08-24T10:02:43;27.60;99.90
4647;DHT22;2336;47.822;7.564;2023-08-24T10:05:14;27.60;99.90
4647;DHT22;2336;47.822;7.564;2023-08-24T10:07:48;27.70;99.90
4647;DHT22;2336;47.822;7.564;2023-08-24T10:10:19;27.70;99.90
4647;DHT22;2336;47.822;7.564;2023-08-24T10:12:49;27.80;99.90
4647;DHT22;2336;47.822;7.564;2023-08-24T10:15:19;27.80;99.90
4647;DHT22;2336;47.822;7.564;2023-08-24T10:17:48;27.70;99.90
4647;DHT22;2336;47.822;7.564;2023-08-24T10:20:18;27.80;99.90
4647;DHT22;2336;47.822;7.564;2023-08-24T10:22:46;27.90;99.90
4647;DHT22;2336;47.822;7.564;2023-08-24T10:25:16;28.10;99.90
4647;DHT22;2336;47.822;7.564;2023-08-24T10:27:44;28.20;99.90
4647;DHT22;2336;47.822;7.564;2023-08-24T10:30:13;28.20;99.90
4647;DHT22;2336;47.822;7.564;2023-08-24T10:32:43;28.20;99.90
4647;DHT22;2336;47.822;7.564;2023-08-24T10:35:11;28.30;99.90
4647;DHT22;2336;47.822;7.564;2023-08-24T10:37:41;28.40;99.90
4647;DHT22;2336;47.822;7.564;2023-08-24T10:40:11;28.30;99.90
4647;DHT22;2336;47.822;7.564;2023-08-24T10:42:45;28.30;99.90
4647;DHT22;2336;47.822;7.564;2023-08-24T10:45:13;28.30;99.90
4647;DHT22;2336;47.822;7.564;2023-08-24T10:47:45;28.40;99.90
4647;DHT22;2336;47.822;7.564;2023-08-24T10:50:14;28.50;99.90
4647;DHT22;2336;47.822;7.564;2023-08-24T10:52:43;28.60;99.90
4647;DHT22;2336;47.822;7.564;2023-08-24T10:55:22;28.70;99.90
4647;DHT22;2336;47.822;7.564;2023-08-24T10:57:56;28.80;99.90
4647;DHT22;2336;47.822;7.564;2023-08-24T11:00:26;28.90;99.90
4647;DHT22;2336;47.822;7.564;2023-08-24T11:02:54;29.10;99.90
4647;DHT22;2336;47.822;7.564;2023-08-24T11:05:22;29.30;99.90
4647;DHT22;2336;47.822;7.564;2023-08-24T11:07:51;29.30;99.90
4647;DHT22;2336;47.822;7.564;2023-08-24T11:10:19;29.30;99.90
4647;DHT22;2336;47.822;7.564;2023-08-24T11:13:07;29.40;99.90
4647;DHT22;2336;47.822;7.564;2023-08-24T11:15:38;29.50;99.90
4647;DHT22;2336;47.822;7.564;2023-08-24T11:18:19;29.60;99.90
4647;DHT22;2336;47.822;7.564;2023-08-24T11:20:48;29.60;99.50
4647;DHT22;2336;47.822;7.564;2023-08-24T11:23:16;29.70;99.30
4647;DHT22;2336;47.822;7.564;2023-08-24T11:25:43;29.70;99.80
4647;DHT22;2336;47.822;7.564;2023-08-24T11:28:10;29.80;99.50
4647;DHT22;2336;47.822;7.564;2023-08-24T11:30:37;30.00;99.80
4647;DHT22;2336;47.822;7.564;2023-08-24T11:33:04;30.10;99.40
4647;DHT22;2336;47.822;7.564;2023-08-24T11:35:36;30.40;99.40
4647;DHT22;2336;47.822;7.564;2023-08-24T11:38:03;30.30;98.40
4647;DHT22;2336;47.822;7.564;2023-08-24T11:40:30;30.30;98.40
4647;DHT22;2336;47.822;7.564;2023-08-24T11:42:57;30.20;98.10
4647;DHT22;2336;47.822;7.564;2023-08-24T11:45:24;30.20;98.60
4647;DHT22;2336;47.822;7.564;2023-08-24T11:47:57;30.20;98.50
4647;DHT22;2336;47.822;7.564;2023-08-24T11:50:24;30.30;98.90
4647;DHT22;2336;47.822;7.564;2023-08-24T11:52:53;30.60;98.40
4647;DHT22;2336;47.822;7.564;2023-08-24T11:55:21;30.90;98.40
4647;DHT22;2336;47.822;7.564;2023-08-24T11:57:47;31.10;98.40
4647;DHT22;2336;47.822;7.564;2023-08-24T12:00:14;31.20;98.10
4647;DHT22;2336;47.822;7.564;2023-08-24T12:02:42;31.30;98.10
4647;DHT22;2336;47.822;7.564;2023-08-24T12:05:20;31.50;97.50
4647;DHT22;2336;47.822;7.564;2023-08-24T12:07:47;31.60;97.20
4647;DHT22;2336;47.822;7.564;2023-08-24T12:10:16;31.70;96.80
4647;DHT22;2336;47.822;7.564;2023-08-24T12:12:43;31.80;96.40
4647;DHT22;2336;47.822;7.564;2023-08-24T12:15:15;32.00;96.00
4647;DHT22;2336;47.822;7.564;2023-08-24T12:17:43;32.00;95.70
4647;DHT22;2336;47.822;7.564;2023-08-24T12:20:18;32.00;94.90
4647;DHT22;2336;47.822;7.564;2023-08-24T12:22:54;32.00;95.20
4647;DHT22;2336;47.822;7.564;2023-08-24T12:25:25;32.00;95.30
4647;DHT22;2336;47.822;7.564;2023-08-24T12:27:52;32.20;95.00
4647;DHT22;2336;47.822;7.564;2023-08-24T12:30:19;32.50;94.70
4647;DHT22;2336;47.822;7.564;2023-08-24T12:32:47;32.70;94.30
4647;DHT22;2336;47.822;7.564;2023-08-24T12:35:16;32.80;94.40
4647;DHT22;2336;47.822;7.564;2023-08-24T12:37:43;33.00;94.20
4647;DHT22;2336;47.822;7.564;2023-08-24T12:40:10;33.10;93.10
4647;DHT22;2336;47.822;7.564;2023-08-24T12:42:39;33.10;92.50
4647;DHT22;2336;47.822;7.564;2023-08-24T12:45:07;33.20;93.20
4647;DHT22;2336;47.822;7.564;2023-08-24T12:47:34;33.20;92.80
4647;DHT22;2336;47.822;7.564;2023-08-24T12:50:07;33.40;92.60
4647;DHT22;2336;47.822;7.564;2023-08-24T12:52:34;33.40;91.70
4647;DHT22;2336;47.822;7.564;2023-08-24T12:55:01;33.40;92.30
4647;DHT22;2336;47.822;7.564;2023-08-24T12:57:30;33.40;91.20
4647;DHT22;2336;47.822;7.564;2023-08-24T12:59:58;33.50;91.80
4647;DHT22;2336;47.822;7.564;2023-08-24T13:02:25;33.60;91.60
4647;DHT22;2336;47.822;7.564;2023-08-24T13:04:51;33.60;91.40
4647;DHT22;2336;47.822;7.564;2023-08-24T13:07:18;33.70;91.30
4647;DHT22;2336;47.822;7.564;2023-08-24T13:09:45;34.00;89.80
4647;DHT22;2336;47.822;7.564;2023-08-24T13:12:12;34.00;88.30
4647;DHT22;2336;47.822;7.564;2023-08-24T13:14:38;33.90;88.80
4647;DHT22;2336;47.822;7.564;2023-08-24T13:17:07;33.90;86.80
4647;DHT22;2336;47.822;7.564;2023-08-24T13:19:33;34.10;86.50
4647;DHT22;2336;47.822;7.564;2023-08-24T13:22:00;34.00;86.20
4647;DHT22;2336;47.822;7.564;2023-08-24T13:24:27;34.20;86.60
4647;DHT22;2336;47.822;7.564;2023-08-24T13:26:53;34.30;83.50
4647;DHT22;2336;47.822;7.564;2023-08-24T13:29:20;34.50;83.80
4647;DHT22;2336;47.822;7.564;2023-08-24T13:31:47;34.70;83.30
4647;DHT22;2336;47.822;7.564;2023-08-24T13:34:15;34.80;84.80
4647;DHT22;2336;47.822;7.564;2023-08-24T13:36:42;34.80;83.40
4647;DHT22;2336;47.822;7.564;2023-08-24T13:39:09;34.70;81.70
4647;DHT22;2336;47.822;7.564;2023-08-24T13:41:36;34.60;81.40
4647;DHT22;2336;47.822;7.564;2023-08-24T13:44:03;34.50;82.10
4647;DHT22;2336;47.822;7.564;2023-08-24T13:46:30;34.50;81.50
4647;DHT22;2336;47.822;7.564;2023-08-24T13:48:57;34.70;81.90
4647;DHT22;2336;47.822;7.564;2023-08-24T13:51:25;34.80;82.40
4647;DHT22;2336;47.822;7.564;2023-08-24T13:53:52;34.90;81.70
4647;DHT22;2336;47.822;7.564;2023-08-24T13:56:18;34.90;83.30
4647;DHT22;2336;47.822;7.564;2023-08-24T13:58:46;35.00;83.00
4647;DHT22;2336;47.822;7.564;2023-08-24T14:01:13;35.20;83.40
4647;DHT22;2336;47.822;7.564;2023-08-24T14:03:40;35.10;82.30
4647;DHT22;2336;47.822;7.564;2023-08-24T14:06:08;35.00;83.20
4647;DHT22;2336;47.822;7.564;2023-08-24T14:08:37;34.80;81.90
4647;DHT22;2336;47.822;7.564;2023-08-24T14:11:04;34.90;83.40
4647;DHT22;2336;47.822;7.564;2023-08-24T14:13:30;35.00;81.70
4647;DHT22;2336;47.822;7.564;2023-08-24T14:15:57;34.80;81.00
4647;DHT22;2336;47.822;7.564;2023-08-24T14:18:24;34.90;82.10
4647;DHT22;2336;47.822;7.564;2023-08-24T14:20:51;35.00;83.20
4647;DHT22;2336;47.822;7.564;2023-08-24T14:23:18;35.20;82.50
4647;DHT22;2336;47.822;7.564;2023-08-24T14:25:47;35.20;81.50
4647;DHT22;2336;47.822;7.564;2023-08-24T14:28:21;35.10;80.70
4647;DHT22;2336;47.822;7.564;2023-08-24T14:30:49;35.20;81.60
4647;DHT22;2336;47.822;7.564;2023-08-24T14:33:16;35.20;81.90
4647;DHT22;2336;47.822;7.564;2023-08-24T14:35:50;35.20;79.40
4647;DHT22;2336;47.822;7.564;2023-08-24T14:38:17;35.20;80.20
4647;DHT22;2336;47.822;7.564;2023-08-24T14:40:43;35.20;79.60
4647;DHT22;2336;47.822;7.564;2023-08-24T14:43:12;35.20;78.30
4647;DHT22;2336;47.822;7.564;2023-08-24T14:45:38;35.30;78.70
4647;DHT22;2336;47.822;7.564;2023-08-24T14:48:05;35.40;77.70
4647;DHT22;2336;47.822;7.564;2023-08-24T14:50:32;35.30;77.90
4647;DHT22;2336;47.822;7.564;2023-08-24T14:52:59;35.50;76.40
4647;DHT22;2336;47.822;7.564;2023-08-24T14:55:26;35.50;76.60
4647;DHT22;2336;47.822;7.564;2023-08-24T14:57:52;35.60;77.70
4647;DHT22;2336;47.822;7.564;2023-08-24T15:00:22;35.60;77.40
4647;DHT22;2336;47.822;7.564;2023-08-24T15:02:48;35.60;74.30
4647;DHT22;2336;47.822;7.564;2023-08-24T15:05:15;35.50;75.60
4647;DHT22;2336;47.822;7.564;2023-08-24T15:07:42;35.50;75.90
4647;DHT22;2336;47.822;7.564;2023-08-24T15:10:09;35.40;76.60
4647;DHT22;2336;47.822;7.564;2023-08-24T15:12:36;35.50;76.90
4647;DHT22;2336;47.822;7.564;2023-08-24T15:15:03;35.30;76.90
4647;DHT22;2336;47.822;7.564;2023-08-24T15:17:32;35.40;77.50
4647;DHT22;2336;47.822;7.564;2023-08-24T15:19:59;35.40;77.90
4647;DHT22;2336;47.822;7.564;2023-08-24T15:22:26;35.40;77.90
4647;DHT22;2336;47.822;7.564;2023-08-24T15:24:54;35.40;77.60
4647;DHT22;2336;47.822;7.564;2023-08-24T15:27:22;35.30;77.70
4647;DHT22;2336;47.822;7.564;2023-08-24T15:29:50;35.20;78.20
4647;DHT22;2336;47.822;7.564;2023-08-24T15:32:17;35.20;78.60
4647;DHT22;2336;47.822;7.564;2023-08-24T15:34:46;35.10;80.00
4647;DHT22;2336;47.822;7.564;2023-08-24T15:37:13;35.10;80.00
4647;DHT22;2336;47.822;7.564;2023-08-24T15:39:41;35.00;80.40
4647;DHT22;2336;47.822;7.564;2023-08-24T15:42:08;35.00;80.50
4647;DHT22;2336;47.822;7.564;2023-08-24T15:44:36;34.90;80.80
4647;DHT22;2336;47.822;7.564;2023-08-24T15:47:03;34.70;82.50
4647;DHT22;2336;47.822;7.564;2023-08-24T15:49:31;34.40;85.60
4647;DHT22;2336;47.822;7.564;2023-08-24T15:52:00;34.00;87.30
4647;DHT22;2336;47.822;7.564;2023-08-24T15:54:27;33.70;88.60
4647;DHT22;2336;47.822;7.564;2023-08-24T15:56:54;33.10;90.60
4647;DHT22;2336;47.822;7.564;2023-08-24T15:59:21;32.80;91.30
4647;DHT22;2336;47.822;7.564;2023-08-24T16:01:50;32.60;92.10
4647;DHT22;2336;47.822;7.564;2023-08-24T16:04:17;32.50;92.40
4647;DHT22;2336;47.822;7.564;2023-08-24T16:06:44;32.30;92.70